Sugar Grove, Virginia
Current Conditions -  °F | °C
As of 8:35 PM on Thursday 27 Nov 2014 (Local Time) from KMKJ Reporting Station
Overcast Overcast  
Wind Chill: 17°   Ceiling: 2600
Heat Index: 28°   Visibility: 10mi
Dew Point: 18°   Wind: 15mph
Humidity: 65%   Direction: 290°WNW
Pressure: 30.25"   Gusts: 24mph
Location:  36.78°N, 81.41°W
Report Text: KMKJ 280135Z AUTO 29013G21KT 10SM OVC026 M02/M08 A3025 RMK AO2 T10201078
Loading
Personal Weather Stations






























Interactive Weather Map New forecast layout! Learn more

10-Day Weather Forecast

Advertisements
Track Severe Weather on mobile